createdAt,value
2017-08-28T00:02:03.447Z,92.40
2017-08-28T00:04:31.791Z,92.20
2017-08-28T00:07:00.063Z,92.70
2017-08-28T00:11:58.290Z,92.50
2017-08-28T00:14:27.357Z,92.70
2017-08-28T00:16:55.864Z,92.70
2017-08-28T00:19:25.719Z,92.80
2017-08-28T00:21:54.000Z,92.80
2017-08-28T00:24:22.279Z,92.60
2017-08-28T00:26:51.755Z,92.90
2017-08-28T00:29:20.421Z,93.20
2017-08-28T00:31:48.697Z,93.00
2017-08-28T00:34:17.031Z,93.40
2017-08-28T00:36:45.311Z,93.40
2017-08-28T00:41:43.511Z,93.60
2017-08-28T00:44:11.799Z,93.50
2017-08-28T00:46:43.862Z,93.60
2017-08-28T00:49:12.950Z,93.80
2017-08-28T00:51:41.236Z,93.90
2017-08-28T00:54:09.556Z,94.10
2017-08-28T00:56:38.639Z,94.40
2017-08-28T01:01:37.620Z,94.30
2017-08-28T01:04:05.932Z,94.50
2017-08-28T01:06:35.702Z,94.50
2017-08-28T01:09:04.043Z,94.30
2017-08-28T01:11:32.346Z,94.60
2017-08-28T01:14:00.625Z,94.60
2017-08-28T01:18:58.866Z,94.60
2017-08-28T01:21:27.138Z,94.50
2017-08-28T01:23:55.468Z,94.60
2017-08-28T01:26:24.540Z,95.00
2017-08-28T01:28:53.583Z,94.90
2017-08-28T01:31:22.659Z,94.60
2017-08-28T01:33:50.970Z,94.70
2017-08-28T01:36:19.246Z,94.80
2017-08-28T01:38:47.559Z,95.10
2017-08-28T01:43:45.358Z,95.20
2017-08-28T01:46:13.662Z,95.00
2017-08-28T01:48:42.012Z,94.70
2017-08-28T01:53:39.880Z,95.10
2017-08-28T01:56:08.196Z,94.90
2017-08-28T01:58:36.476Z,94.90
2017-08-28T02:01:04.779Z,94.70
2017-08-28T02:03:33.107Z,95.20
2017-08-28T02:06:01.375Z,95.60
2017-08-28T02:08:30.463Z,95.10
2017-08-28T02:10:59.559Z,95.60
2017-08-28T02:13:28.599Z,95.90
2017-08-28T02:15:56.910Z,96.10
2017-08-28T02:18:26.775Z,96.10
2017-08-28T02:20:55.039Z,95.70
2017-08-28T02:23:23.346Z,96.30
2017-08-28T02:25:51.656Z,96.40
2017-08-28T02:28:19.924Z,96.30
2017-08-28T02:30:48.194Z,96.30
2017-08-28T02:35:46.022Z,96.50
2017-08-28T02:38:14.305Z,96.20
2017-08-28T02:40:43.100Z,96.40
2017-08-28T02:45:56.887Z,96.60
2017-08-28T02:48:56.984Z,96.80
2017-08-28T02:51:25.321Z,96.80
2017-08-28T02:56:23.859Z,96.60
2017-08-28T02:58:52.971Z,96.90
2017-08-28T03:01:21.251Z,97.30
2017-08-28T03:03:49.523Z,97.20
2017-08-28T03:06:18.988Z,97.50
2017-08-28T03:08:47.263Z,97.60
2017-08-28T03:11:15.535Z,97.30
2017-08-28T03:13:43.850Z,97.20
2017-08-28T03:16:12.146Z,97.30
2017-08-28T03:18:40.433Z,97.20
2017-08-28T03:21:09.890Z,97.60
2017-08-28T03:23:38.204Z,97.60
2017-08-28T03:28:36.823Z,97.60
2017-08-28T03:31:05.101Z,97.40
2017-08-28T03:33:33.372Z,97.90
2017-08-28T03:36:02.459Z,97.40
2017-08-28T03:38:30.732Z,97.10
2017-08-28T03:40:59.775Z,97.70
2017-08-28T03:43:28.868Z,97.20
2017-08-28T03:45:57.167Z,97.20
2017-08-28T03:48:25.452Z,97.50
2017-08-28T03:50:53.770Z,97.80
2017-08-28T03:53:23.175Z,98.00
2017-08-28T03:58:51.747Z,98.00
2017-08-28T04:01:20.026Z,98.00
2017-08-28T04:03:48.299Z,98.20
2017-08-28T04:06:18.138Z,98.10
2017-08-28T04:11:17.050Z,98.00
2017-08-28T04:13:45.383Z,98.30
2017-08-28T04:16:14.443Z,98.50
2017-08-28T04:21:12.338Z,97.80
2017-08-28T04:26:10.543Z,98.00
2017-08-28T04:28:38.902Z,98.20
2017-08-28T04:33:37.480Z,97.80
2017-08-28T04:36:05.818Z,98.00
2017-08-28T04:38:34.094Z,98.00
2017-08-28T04:43:31.950Z,98.10
2017-08-28T04:46:00.223Z,98.40
2017-08-28T04:48:28.515Z,98.20
2017-08-28T04:51:00.617Z,98.30
2017-08-28T04:53:28.894Z,98.20
2017-08-28T04:55:57.570Z,98.20
2017-08-28T04:58:25.945Z,98.40
2017-08-28T05:00:54.224Z,98.50
2017-08-28T05:03:23.262Z,98.60
2017-08-28T05:05:52.402Z,98.50
2017-08-28T05:08:20.682Z,98.50
2017-08-28T05:10:48.964Z,98.90
2017-08-28T05:13:17.291Z,98.50
2017-08-28T05:15:45.583Z,98.80
2017-08-28T05:18:13.863Z,99.00
2017-08-28T05:20:42.199Z,99.00
2017-08-28T05:23:11.254Z,99.00
2017-08-28T05:25:39.964Z,98.90
2017-08-28T05:28:08.353Z,98.30
2017-08-28T05:30:37.417Z,98.40
2017-08-28T05:33:05.693Z,98.40
2017-08-28T05:35:34.047Z,97.60
2017-08-28T05:38:02.322Z,97.40
2017-08-28T05:40:30.600Z,97.60
2017-08-28T05:42:59.331Z,96.60
2017-08-28T05:45:27.608Z,96.80
2017-08-28T05:47:56.653Z,96.70
2017-08-28T05:50:25.015Z,97.20
2017-08-28T05:52:53.287Z,95.90
2017-08-28T05:55:21.571Z,95.90
2017-08-28T05:57:50.688Z,95.60
2017-08-28T06:00:18.976Z,96.50
2017-08-28T06:02:47.262Z,95.90
2017-08-28T06:05:15.599Z,94.90
2017-08-28T06:07:43.900Z,94.70
2017-08-28T06:10:13.710Z,94.90
2017-08-28T06:12:42.067Z,95.30
2017-08-28T06:15:11.892Z,94.70
2017-08-28T06:17:40.240Z,94.30
2017-08-28T06:20:08.588Z,94.30
2017-08-28T06:22:36.921Z,93.40
2017-08-28T06:25:05.199Z,93.50
2017-08-28T06:27:34.302Z,93.40
2017-08-28T06:30:02.575Z,93.60
2017-08-28T06:32:30.859Z,92.80
2017-08-28T06:34:59.219Z,92.10
2017-08-28T06:37:27.499Z,91.50
2017-08-28T06:39:56.539Z,91.60
2017-08-28T06:42:24.879Z,91.80
2017-08-28T06:44:53.175Z,90.80
2017-08-28T06:47:21.455Z,90.00
2017-08-28T06:49:49.796Z,90.00
2017-08-28T06:52:18.088Z,89.00
2017-08-28T06:54:46.415Z,88.70
2017-08-28T06:59:45.418Z,87.60
2017-08-28T07:02:13.711Z,86.90
2017-08-28T07:04:42.054Z,88.30
2017-08-28T07:07:10.346Z,86.60
2017-08-28T07:09:38.647Z,86.20
2017-08-28T07:12:08.159Z,83.70
2017-08-28T07:14:36.473Z,82.70
2017-08-28T07:17:04.746Z,85.00
2017-08-28T07:19:33.140Z,84.70
2017-08-28T07:22:01.443Z,83.20
2017-08-28T07:24:29.725Z,82.30
2017-08-28T07:26:58.852Z,81.50
2017-08-28T07:29:27.151Z,82.00
2017-08-28T07:31:55.448Z,81.60
2017-08-28T07:34:24.178Z,80.70
2017-08-28T07:36:52.462Z,80.50
2017-08-28T07:39:20.742Z,80.50
2017-08-28T07:41:49.471Z,80.50
2017-08-28T07:44:18.524Z,79.00
2017-08-28T07:46:46.810Z,79.00
2017-08-28T07:49:15.923Z,79.20
2017-08-28T07:51:44.216Z,75.80
2017-08-28T07:54:12.528Z,76.10
2017-08-28T07:56:40.873Z,74.70
2017-08-28T07:59:10.301Z,73.00
2017-08-28T08:01:38.599Z,74.00
2017-08-28T08:04:07.516Z,72.00
2017-08-28T08:06:36.577Z,73.20
2017-08-28T08:09:04.855Z,73.30
2017-08-28T08:11:33.199Z,70.80
2017-08-28T08:14:01.484Z,73.10
2017-08-28T08:16:29.763Z,69.30
2017-08-28T08:18:58.096Z,71.50
2017-08-28T08:21:26.397Z,69.50
2017-08-28T08:23:54.683Z,66.90
2017-08-28T08:26:23.035Z,69.20
2017-08-28T08:28:51.707Z,67.90
2017-08-28T08:31:19.999Z,66.80
2017-08-28T08:33:55.466Z,65.60
2017-08-28T08:36:24.147Z,66.70
2017-08-28T08:38:52.435Z,66.30
2017-08-28T08:41:20.767Z,65.50
2017-08-28T08:43:49.050Z,67.80
2017-08-28T08:46:17.334Z,66.90
2017-08-28T08:48:46.427Z,66.20
2017-08-28T08:51:14.706Z,65.60
2017-08-28T08:53:43.392Z,62.70
2017-08-28T08:56:11.739Z,61.70
2017-08-28T08:58:40.040Z,61.70
2017-08-28T09:01:09.843Z,61.00
2017-08-28T09:03:38.971Z,60.70
2017-08-28T09:06:08.035Z,60.00
2017-08-28T09:08:36.310Z,58.40
2017-08-28T09:11:05.402Z,60.00
2017-08-28T09:13:33.684Z,59.20
2017-08-28T09:16:01.959Z,57.60
2017-08-28T09:18:31.775Z,57.30
2017-08-28T09:21:00.054Z,55.80
2017-08-28T09:23:28.727Z,53.30
2017-08-28T09:25:57.052Z,55.10
2017-08-28T09:28:26.487Z,53.90
2017-08-28T09:30:54.775Z,53.40
2017-08-28T09:33:23.094Z,52.00
2017-08-28T09:35:51.766Z,50.50
2017-08-28T09:38:20.047Z,51.90
2017-08-28T09:40:49.519Z,50.90
2017-08-28T09:43:17.811Z,49.20
2017-08-28T09:45:46.098Z,50.20
2017-08-28T09:55:43.741Z,48.90
2017-08-28T09:58:12.035Z,49.70
2017-08-28T10:00:41.836Z,48.20
2017-08-28T10:03:10.192Z,47.30
2017-08-28T10:05:39.366Z,48.70
2017-08-28T10:08:08.068Z,48.90
2017-08-28T10:10:36.414Z,47.50
2017-08-28T10:13:04.690Z,48.50
2017-08-28T10:18:02.954Z,45.60
2017-08-28T10:20:31.231Z,46.50
2017-08-28T10:22:59.507Z,46.30
2017-08-28T10:25:27.842Z,48.00
2017-08-28T10:27:56.896Z,44.40
2017-08-28T10:30:25.941Z,43.70
2017-08-28T10:32:55.030Z,44.00
2017-08-28T10:35:23.307Z,45.40
2017-08-28T10:37:52.342Z,43.60
2017-08-28T10:40:21.443Z,40.70
2017-08-28T10:42:49.723Z,41.10
2017-08-28T10:45:18.003Z,41.80
2017-08-28T10:47:46.334Z,42.10
2017-08-28T10:50:14.610Z,43.20
2017-08-28T10:52:44.031Z,43.60
2017-08-28T10:55:12.375Z,43.30
2017-08-28T10:57:40.675Z,44.30
2017-08-28T11:00:08.971Z,43.30
2017-08-28T11:02:38.946Z,41.40
2017-08-28T11:05:07.242Z,41.50
2017-08-28T11:10:05.847Z,41.20
2017-08-28T11:12:34.903Z,40.90
2017-08-28T11:15:03.184Z,41.20
2017-08-28T11:17:31.989Z,41.60
2017-08-28T11:20:01.407Z,41.60
2017-08-28T11:22:29.686Z,41.70
2017-08-28T11:24:58.031Z,40.70
2017-08-28T11:27:27.810Z,42.20
2017-08-28T11:29:56.120Z,42.70
2017-08-28T11:32:24.452Z,43.90
2017-08-28T11:34:52.744Z,43.40
2017-08-28T11:37:22.166Z,44.70
2017-08-28T11:39:50.487Z,44.40
2017-08-28T11:42:18.768Z,42.90
2017-08-28T11:44:47.039Z,41.80
2017-08-28T11:47:15.370Z,44.00
2017-08-28T11:49:44.786Z,43.80
2017-08-28T11:52:14.569Z,41.90
2017-08-28T11:54:42.915Z,41.90
2017-08-28T11:59:41.134Z,44.50
2017-08-28T12:02:09.483Z,44.70
2017-08-28T12:04:39.301Z,43.40
2017-08-28T12:07:07.602Z,43.10
2017-08-28T12:09:35.931Z,42.10
2017-08-28T12:12:04.219Z,41.00
2017-08-28T12:14:33.630Z,41.70
2017-08-28T12:17:01.963Z,42.10
2017-08-28T12:19:30.244Z,42.80
2017-08-28T12:21:58.527Z,42.50
2017-08-28T12:24:26.871Z,42.50
2017-08-28T12:26:55.150Z,43.90
2017-08-28T12:29:24.195Z,44.10
2017-08-28T12:31:53.298Z,43.20
2017-08-28T12:34:21.578Z,42.90
2017-08-28T12:36:50.624Z,42.60
2017-08-28T12:39:18.946Z,41.40
2017-08-28T12:41:47.223Z,43.00
2017-08-28T12:44:15.496Z,43.90
2017-08-28T12:46:45.351Z,43.10
2017-08-28T12:49:13.640Z,43.00
2017-08-28T12:51:41.939Z,42.20
2017-08-28T12:54:10.290Z,44.30
2017-08-28T12:56:39.439Z,44.30
2017-08-28T12:59:08.267Z,44.60
2017-08-28T13:01:36.635Z,45.30
2017-08-28T13:04:06.433Z,43.00
2017-08-28T13:06:34.711Z,44.50
2017-08-28T13:09:03.072Z,44.00
2017-08-28T13:11:32.114Z,44.50
2017-08-28T13:16:30.718Z,42.90
2017-08-28T13:21:28.511Z,44.20
2017-08-28T13:23:56.871Z,43.20
2017-08-28T13:26:25.149Z,45.80
2017-08-28T13:31:23.928Z,45.80
2017-08-28T13:33:53.378Z,45.10
2017-08-28T13:36:21.644Z,44.30
2017-08-28T13:38:49.975Z,45.80
2017-08-28T13:41:18.254Z,46.30
2017-08-28T13:43:46.531Z,47.20
2017-08-28T13:46:16.378Z,45.80
2017-08-28T13:48:44.660Z,47.70
2017-08-28T13:51:12.945Z,47.20
2017-08-28T13:53:42.045Z,46.90
2017-08-28T13:56:10.360Z,47.70
2017-08-28T13:58:39.462Z,47.00
2017-08-28T14:01:09.083Z,46.00
2017-08-28T14:03:38.503Z,47.70
2017-08-28T14:08:36.926Z,46.60
2017-08-28T14:11:05.659Z,47.20
2017-08-28T14:13:35.069Z,48.00
2017-08-28T14:16:03.424Z,48.90
2017-08-28T14:18:31.709Z,49.00
2017-08-28T14:20:59.996Z,49.90
2017-08-28T14:23:29.870Z,48.10
2017-08-28T14:25:58.160Z,49.30
2017-08-28T14:30:56.390Z,50.80
2017-08-28T14:33:24.671Z,49.60
2017-08-28T14:35:52.947Z,48.90
2017-08-28T14:40:52.299Z,49.60
2017-08-28T14:43:20.829Z,49.30
2017-08-28T14:45:50.667Z,49.60
2017-08-28T14:48:18.955Z,52.80
2017-08-28T14:50:48.315Z,51.40
2017-08-28T14:55:48.423Z,52.70
2017-08-28T14:58:17.176Z,52.00
2017-08-28T15:00:46.283Z,51.90
2017-08-28T15:03:14.558Z,51.40
2017-08-28T15:05:43.612Z,53.30
2017-08-28T15:08:11.953Z,52.20
2017-08-28T15:10:42.562Z,52.10
2017-08-28T15:13:11.616Z,52.10
2017-08-28T15:15:40.728Z,51.50
2017-08-28T15:18:09.071Z,51.60
2017-08-28T15:20:39.524Z,52.90
2017-08-28T15:23:09.046Z,52.70
2017-08-28T15:28:08.560Z,53.20
2017-08-28T15:30:36.902Z,53.90
2017-08-28T15:33:06.803Z,53.60
2017-08-28T15:35:35.128Z,53.40
2017-08-28T15:38:04.968Z,53.00
2017-08-28T15:40:33.321Z,54.50
2017-08-28T15:43:01.755Z,54.60
2017-08-28T15:45:30.102Z,53.50
2017-08-28T15:47:59.903Z,53.90
2017-08-28T15:50:28.260Z,54.20
2017-08-28T15:52:57.379Z,54.80
2017-08-28T15:55:25.694Z,55.60
2017-08-28T15:57:54.024Z,55.00
2017-08-28T16:00:22.390Z,55.40
2017-08-28T16:02:50.716Z,56.10
2017-08-28T16:05:20.155Z,55.30
2017-08-28T16:10:19.660Z,55.20
2017-08-28T16:12:48.395Z,53.90
2017-08-28T16:15:17.439Z,54.70
2017-08-28T16:17:46.496Z,54.80
2017-08-28T16:20:14.809Z,56.40
2017-08-28T16:22:43.093Z,56.50
2017-08-28T16:25:11.379Z,55.50
2017-08-28T16:27:39.757Z,55.80
2017-08-28T16:30:08.146Z,53.80
2017-08-28T16:32:37.202Z,54.60
2017-08-28T16:35:06.318Z,55.20
2017-08-28T16:37:34.599Z,56.50
2017-08-28T16:40:02.891Z,56.10
2017-08-28T16:42:32.723Z,56.20
2017-08-28T16:45:02.576Z,57.00
2017-08-28T16:47:32.039Z,57.10
2017-08-28T16:50:00.358Z,57.30
2017-08-28T16:52:28.659Z,57.40
2017-08-28T16:57:26.940Z,59.40
2017-08-28T16:59:56.359Z,60.40
2017-08-28T17:02:24.736Z,61.20
2017-08-28T17:04:53.083Z,62.90
2017-08-28T17:07:21.372Z,64.10
2017-08-28T17:09:49.661Z,67.10
2017-08-28T17:12:18.325Z,63.40
2017-08-28T17:14:48.108Z,60.70
2017-08-28T17:17:16.391Z,61.20
2017-08-28T17:19:46.243Z,64.60
2017-08-28T17:24:45.560Z,68.00
2017-08-28T17:27:13.900Z,67.00
2017-08-28T17:29:42.246Z,66.90
2017-08-28T17:32:12.052Z,69.00
2017-08-28T17:34:40.383Z,69.10
2017-08-28T17:37:08.724Z,67.70
2017-08-28T17:39:38.184Z,65.70
2017-08-28T17:42:06.978Z,66.70
2017-08-28T17:44:36.466Z,66.90
2017-08-28T17:47:04.768Z,69.40
2017-08-28T17:49:33.123Z,70.00
2017-08-28T17:52:01.411Z,69.50
2017-08-28T17:54:29.699Z,74.40
2017-08-28T17:57:01.501Z,74.30
2017-08-28T17:59:31.469Z,74.00
2017-08-28T18:02:00.609Z,74.90
2017-08-28T18:04:30.452Z,74.30
2017-08-28T18:06:59.495Z,74.60
2017-08-28T18:11:57.755Z,75.00
2017-08-28T18:14:26.032Z,77.00
2017-08-28T18:19:24.280Z,77.90
2017-08-28T18:21:52.563Z,77.20
2017-08-28T18:24:20.851Z,77.20
2017-08-28T18:26:49.186Z,77.70
2017-08-28T18:29:17.470Z,78.70
2017-08-28T18:31:47.316Z,79.00
2017-08-28T18:34:15.674Z,80.20
2017-08-28T18:36:45.465Z,79.70
2017-08-28T18:39:13.770Z,79.50
2017-08-28T18:41:42.127Z,79.70
2017-08-28T18:44:11.958Z,79.90
2017-08-28T18:49:10.650Z,79.50
2017-08-28T18:51:39.772Z,79.60
2017-08-28T18:56:38.575Z,81.90
2017-08-28T18:59:08.020Z,82.50
2017-08-28T19:01:36.311Z,81.90
2017-08-28T19:04:05.967Z,82.70
2017-08-28T19:06:34.253Z,82.40
2017-08-28T19:09:02.536Z,82.50
2017-08-28T19:11:30.875Z,83.50
2017-08-28T19:13:59.159Z,83.30
2017-08-28T19:16:27.452Z,83.00
2017-08-28T19:18:55.796Z,82.90
2017-08-28T19:26:23.932Z,81.50
2017-08-28T19:31:23.276Z,82.60
2017-08-28T19:33:54.368Z,82.50
2017-08-28T19:36:23.499Z,82.30
2017-08-28T19:41:21.719Z,83.80
2017-08-28T19:43:49.990Z,83.30
2017-08-28T19:46:18.266Z,83.50
2017-08-28T19:48:46.599Z,83.30
2017-08-28T19:51:14.892Z,83.40
2017-08-28T19:53:43.180Z,83.10
2017-08-28T19:56:13.068Z,83.60
2017-08-28T19:58:41.408Z,83.90
2017-08-28T20:01:09.786Z,84.50
2017-08-28T20:03:39.667Z,84.00
2017-08-28T20:08:37.963Z,84.50
2017-08-28T20:11:07.078Z,84.60
2017-08-28T20:13:35.364Z,83.90
2017-08-28T20:16:05.151Z,83.60
2017-08-28T20:18:33.487Z,84.00
2017-08-28T20:21:01.776Z,84.00
2017-08-28T20:23:38.837Z,85.00
2017-08-28T20:26:09.636Z,84.80
2017-08-28T20:28:37.972Z,85.90
2017-08-28T20:31:06.297Z,84.80
2017-08-28T20:33:34.566Z,85.70
2017-08-28T20:36:02.969Z,86.30
2017-08-28T20:38:31.331Z,86.10
2017-08-28T20:40:59.610Z,86.00
2017-08-28T20:43:29.083Z,85.60
2017-08-28T20:45:57.402Z,86.70
2017-08-28T20:48:25.691Z,87.00
2017-08-28T20:50:54.000Z,87.00
2017-08-28T20:55:52.152Z,87.30
2017-08-28T20:58:21.194Z,87.40
2017-08-28T21:00:49.524Z,87.00
2017-08-28T21:03:17.811Z,88.50
2017-08-28T21:05:46.099Z,88.70
2017-08-28T21:08:14.424Z,89.50
2017-08-28T21:10:42.739Z,89.20
2017-08-28T21:13:12.214Z,89.50
2017-08-28T21:15:40.614Z,89.00
2017-08-28T21:18:08.918Z,89.30
2017-08-28T21:23:06.786Z,89.60
2017-08-28T21:25:35.066Z,89.90
2017-08-28T21:28:03.339Z,90.20
2017-08-28T21:30:31.678Z,90.50
2017-08-28T21:33:00.718Z,90.30
2017-08-28T21:35:29.919Z,90.10
2017-08-28T21:37:59.534Z,90.00
2017-08-28T21:40:29.335Z,90.10
2017-08-28T21:42:57.639Z,89.50
2017-08-28T21:45:25.972Z,90.10
2017-08-28T21:47:55.405Z,90.20
2017-08-28T21:50:23.687Z,90.60
2017-08-28T21:52:52.021Z,90.70
2017-08-28T21:55:20.307Z,91.00
2017-08-28T21:57:48.591Z,91.00
2017-08-28T22:00:17.376Z,91.60
2017-08-28T22:02:48.733Z,91.50
2017-08-28T22:05:17.088Z,91.80
2017-08-28T22:07:46.517Z,91.80
2017-08-28T22:10:14.803Z,91.80
2017-08-28T22:12:43.936Z,91.80
2017-08-28T22:15:12.627Z,91.90
2017-08-28T22:17:40.929Z,92.20
2017-08-28T22:20:09.261Z,92.20
2017-08-28T22:22:37.915Z,92.50
2017-08-28T22:25:07.338Z,92.20
2017-08-28T22:27:35.736Z,92.50
2017-08-28T22:30:04.021Z,92.70
2017-08-28T22:32:32.315Z,92.80
2017-08-28T22:35:01.810Z,92.70
2017-08-28T22:37:30.096Z,92.90
2017-08-28T22:39:58.607Z,93.00
2017-08-28T22:42:27.068Z,93.00
2017-08-28T22:44:56.527Z,93.10
2017-08-28T22:50:25.257Z,93.00
2017-08-28T22:55:23.462Z,93.80
2017-08-28T22:57:51.796Z,93.50
2017-08-28T23:00:21.818Z,93.80
2017-08-28T23:02:50.908Z,94.20
2017-08-28T23:05:19.230Z,94.50
2017-08-28T23:07:47.910Z,94.40
2017-08-28T23:10:17.372Z,94.90
2017-08-28T23:12:45.695Z,95.10
2017-08-28T23:15:15.899Z,94.70
2017-08-28T23:17:44.227Z,95.00
2017-08-28T23:20:13.720Z,94.70
2017-08-28T23:22:42.031Z,95.10
2017-08-28T23:25:10.381Z,95.00
2017-08-28T23:27:38.803Z,95.10
2017-08-28T23:30:08.688Z,95.40
2017-08-28T23:32:37.028Z,95.60
2017-08-28T23:35:05.376Z,95.50
2017-08-28T23:37:35.114Z,95.40
2017-08-28T23:40:04.620Z,95.60
2017-08-28T23:45:02.858Z,95.90
2017-08-28T23:47:31.151Z,96.10
2017-08-28T23:50:01.372Z,96.30
2017-08-28T23:52:29.661Z,96.50
2017-08-28T23:54:57.973Z,96.50
2017-08-28T23:57:26.338Z,96.70
2017-08-28T23:59:55.391Z,96.80
